sensor_id;sensor_type;location;lat;lon;timestamp;temperature;humidity
59855;DHT22;45732;52.850;6.896;2023-03-23T00:01:20;11.30;99.90
59855;DHT22;45732;52.850;6.896;2023-03-23T00:03:49;11.30;99.90
59855;DHT22;45732;52.850;6.896;2023-03-23T00:06:16;11.30;99.90
59855;DHT22;45732;52.850;6.896;2023-03-23T00:08:47;11.30;99.90
59855;DHT22;45732;52.850;6.896;2023-03-23T00:11:20;11.30;99.90
59855;DHT22;45732;52.850;6.896;2023-03-23T00:13:48;11.30;99.90
59855;DHT22;45732;52.850;6.896;2023-03-23T00:16:21;11.30;99.90
59855;DHT22;45732;52.850;6.896;2023-03-23T00:18:57;11.30;99.90
59855;DHT22;45732;52.850;6.896;2023-03-23T00:21:25;11.40;99.90
59855;DHT22;45732;52.850;6.896;2023-03-23T00:24:04;11.30;99.90
59855;DHT22;45732;52.850;6.896;2023-03-23T00:26:32;11.40;99.90
59855;DHT22;45732;52.850;6.896;2023-03-23T00:29:03;11.30;99.90
59855;DHT22;45732;52.850;6.896;2023-03-23T00:31:30;11.30;99.90
59855;DHT22;45732;52.850;6.896;2023-03-23T00:34:03;11.40;99.90
59855;DHT22;45732;52.850;6.896;2023-03-23T00:36:30;11.40;99.90
59855;DHT22;45732;52.850;6.896;2023-03-23T00:38:57;11.30;99.90
59855;DHT22;45732;52.850;6.896;2023-03-23T00:41:28;11.40;99.90
59855;DHT22;45732;52.850;6.896;2023-03-23T00:43:55;11.40;99.90
59855;DHT22;45732;52.850;6.896;2023-03-23T00:46:22;11.40;99.90
59855;DHT22;45732;52.850;6.896;2023-03-23T00:48:48;11.40;99.90
59855;DHT22;45732;52.850;6.896;2023-03-23T00:51:19;11.40;99.90
59855;DHT22;45732;52.850;6.896;2023-03-23T00:53:46;11.30;99.90
59855;DHT22;45732;52.850;6.896;2023-03-23T00:56:12;11.30;99.90
59855;DHT22;45732;52.850;6.896;2023-03-23T00:58:38;11.40;99.90
59855;DHT22;45732;52.850;6.896;2023-03-23T01:01:05;11.30;99.90
59855;DHT22;45732;52.850;6.896;2023-03-23T01:03:31;11.40;99.90
59855;DHT22;45732;52.850;6.896;2023-03-23T01:05:57;11.40;99.90
59855;DHT22;45732;52.850;6.896;2023-03-23T01:08:23;11.40;99.90
59855;DHT22;45732;52.850;6.896;2023-03-23T01:10:49;11.40;99.90
59855;DHT22;45732;52.850;6.896;2023-03-23T01:13:16;11.40;99.90
59855;DHT22;45732;52.850;6.896;2023-03-23T01:15:42;11.40;99.90
59855;DHT22;45732;52.850;6.896;2023-03-23T01:18:09;11.50;99.90
59855;DHT22;45732;52.850;6.896;2023-03-23T01:20:36;11.50;99.90
59855;DHT22;45732;52.850;6.896;2023-03-23T01:23:02;11.50;99.90
59855;DHT22;45732;52.850;6.896;2023-03-23T01:25:29;11.50;99.90
59855;DHT22;45732;52.850;6.896;2023-03-23T01:27:56;11.50;99.90
59855;DHT22;45732;52.850;6.896;2023-03-23T01:30:22;11.50;99.90
59855;DHT22;45732;52.850;6.896;2023-03-23T01:32:49;11.50;99.90
59855;DHT22;45732;52.850;6.896;2023-03-23T01:35:15;11.50;99.90
59855;DHT22;45732;52.850;6.896;2023-03-23T01:37:41;11.50;99.90
59855;DHT22;45732;52.850;6.896;2023-03-23T01:40:07;11.50;99.90
59855;DHT22;45732;52.850;6.896;2023-03-23T01:42:35;11.50;99.90
59855;DHT22;45732;52.850;6.896;2023-03-23T01:48:39;11.50;99.90
59855;DHT22;45732;52.850;6.896;2023-03-23T01:51:12;11.50;99.90
59855;DHT22;45732;52.850;6.896;2023-03-23T01:53:43;11.50;99.90
59855;DHT22;45732;52.850;6.896;2023-03-23T01:56:11;11.40;99.90
59855;DHT22;45732;52.850;6.896;2023-03-23T01:58:38;11.50;99.90
59855;DHT22;45732;52.850;6.896;2023-03-23T02:01:08;11.50;99.90
59855;DHT22;45732;52.850;6.896;2023-03-23T02:03:37;11.50;99.90
59855;DHT22;45732;52.850;6.896;2023-03-23T02:06:05;11.50;99.90
59855;DHT22;45732;52.850;6.896;2023-03-23T02:08:32;11.50;99.90
59855;DHT22;45732;52.850;6.896;2023-03-23T02:10:58;11.50;99.90
59855;DHT22;45732;52.850;6.896;2023-03-23T02:13:26;11.50;99.90
59855;DHT22;45732;52.850;6.896;2023-03-23T02:16:16;11.50;99.90
59855;DHT22;45732;52.850;6.896;2023-03-23T02:27:31;11.50;99.90
59855;DHT22;45732;52.850;6.896;2023-03-23T02:30:14;11.50;99.90
59855;DHT22;45732;52.850;6.896;2023-03-23T02:35:56;11.50;99.90
59855;DHT22;45732;52.850;6.896;2023-03-23T02:38:29;11.50;99.90
59855;DHT22;45732;52.850;6.896;2023-03-23T02:40:56;11.50;99.90
59855;DHT22;45732;52.850;6.896;2023-03-23T02:43:28;11.50;99.90
59855;DHT22;45732;52.850;6.896;2023-03-23T02:45:56;11.50;99.90
59855;DHT22;45732;52.850;6.896;2023-03-23T02:48:27;11.40;99.90
59855;DHT22;45732;52.850;6.896;2023-03-23T02:50:54;11.40;99.90
59855;DHT22;45732;52.850;6.896;2023-03-23T02:53:24;11.40;99.90
59855;DHT22;45732;52.850;6.896;2023-03-23T02:55:53;11.40;99.90
59855;DHT22;45732;52.850;6.896;2023-03-23T02:58:21;11.40;99.90
59855;DHT22;45732;52.850;6.896;2023-03-23T03:00:49;11.40;99.90
59855;DHT22;45732;52.850;6.896;2023-03-23T03:03:17;11.40;99.90
59855;DHT22;45732;52.850;6.896;2023-03-23T03:06:07;11.40;99.90
59855;DHT22;45732;52.850;6.896;2023-03-23T03:09:12;11.40;99.90
59855;DHT22;45732;52.850;6.896;2023-03-23T03:11:26;11.40;99.90
59855;DHT22;45732;52.850;6.896;2023-03-23T03:16:57;11.40;99.90
59855;DHT22;45732;52.850;6.896;2023-03-23T03:19:29;11.50;99.90
59855;DHT22;45732;52.850;6.896;2023-03-23T03:21:58;11.50;99.90
59855;DHT22;45732;52.850;6.896;2023-03-23T03:24:27;11.40;99.90
59855;DHT22;45732;52.850;6.896;2023-03-23T03:26:55;11.40;99.90
59855;DHT22;45732;52.850;6.896;2023-03-23T03:29:33;11.50;99.90
59855;DHT22;45732;52.850;6.896;2023-03-23T03:32:00;11.50;99.90
59855;DHT22;45732;52.850;6.896;2023-03-23T03:34:27;11.50;99.90
59855;DHT22;45732;52.850;6.896;2023-03-23T03:36:54;11.50;99.90
59855;DHT22;45732;52.850;6.896;2023-03-23T03:39:24;11.50;99.90
59855;DHT22;45732;52.850;6.896;2023-03-23T03:41:50;11.50;99.90
59855;DHT22;45732;52.850;6.896;2023-03-23T03:44:16;11.50;99.90
59855;DHT22;45732;52.850;6.896;2023-03-23T03:46:41;11.50;99.90
59855;DHT22;45732;52.850;6.896;2023-03-23T03:49:09;11.50;99.90
59855;DHT22;45732;52.850;6.896;2023-03-23T03:51:37;11.60;99.90
59855;DHT22;45732;52.850;6.896;2023-03-23T03:54:03;11.60;99.90
59855;DHT22;45732;52.850;6.896;2023-03-23T03:56:29;11.60;99.90
59855;DHT22;45732;52.850;6.896;2023-03-23T03:58:56;11.70;99.90
59855;DHT22;45732;52.850;6.896;2023-03-23T04:01:23;11.70;99.90
59855;DHT22;45732;52.850;6.896;2023-03-23T04:03:49;11.70;99.90
59855;DHT22;45732;52.850;6.896;2023-03-23T04:06:16;11.70;99.90
59855;DHT22;45732;52.850;6.896;2023-03-23T04:08:43;11.70;99.90
59855;DHT22;45732;52.850;6.896;2023-03-23T04:11:11;11.80;99.90
59855;DHT22;45732;52.850;6.896;2023-03-23T04:13:38;11.80;99.90
59855;DHT22;45732;52.850;6.896;2023-03-23T04:16:04;11.80;99.90
59855;DHT22;45732;52.850;6.896;2023-03-23T04:18:32;11.80;99.90
59855;DHT22;45732;52.850;6.896;2023-03-23T04:21:00;11.80;99.90
59855;DHT22;45732;52.850;6.896;2023-03-23T04:23:27;11.70;99.90
59855;DHT22;45732;52.850;6.896;2023-03-23T04:25:56;11.70;99.90
59855;DHT22;45732;52.850;6.896;2023-03-23T04:28:24;11.70;99.90
59855;DHT22;45732;52.850;6.896;2023-03-23T04:30:51;11.70;99.90
59855;DHT22;45732;52.850;6.896;2023-03-23T04:33:22;11.60;99.90
59855;DHT22;45732;52.850;6.896;2023-03-23T04:35:51;11.60;99.90
59855;DHT22;45732;52.850;6.896;2023-03-23T04:38:18;11.70;99.90
59855;DHT22;45732;52.850;6.896;2023-03-23T04:40:48;11.70;99.90
59855;DHT22;45732;52.850;6.896;2023-03-23T04:43:17;11.70;99.90
59855;DHT22;45732;52.850;6.896;2023-03-23T04:45:47;11.70;99.90
59855;DHT22;45732;52.850;6.896;2023-03-23T04:48:17;11.70;99.90
59855;DHT22;45732;52.850;6.896;2023-03-23T04:50:44;11.70;99.90
59855;DHT22;45732;52.850;6.896;2023-03-23T04:53:09;11.70;99.90
59855;DHT22;45732;52.850;6.896;2023-03-23T04:55:36;11.70;99.90
59855;DHT22;45732;52.850;6.896;2023-03-23T04:58:06;11.70;99.90
59855;DHT22;45732;52.850;6.896;2023-03-23T05:00:34;11.80;99.90
59855;DHT22;45732;52.850;6.896;2023-03-23T05:03:00;11.80;99.90
59855;DHT22;45732;52.850;6.896;2023-03-23T05:05:26;11.80;99.90
59855;DHT22;45732;52.850;6.896;2023-03-23T05:07:54;11.80;99.90
59855;DHT22;45732;52.850;6.896;2023-03-23T05:10:20;11.80;99.90
59855;DHT22;45732;52.850;6.896;2023-03-23T05:12:46;11.80;99.90
59855;DHT22;45732;52.850;6.896;2023-03-23T05:15:13;11.80;99.90
59855;DHT22;45732;52.850;6.896;2023-03-23T05:17:40;11.80;99.90
59855;DHT22;45732;52.850;6.896;2023-03-23T05:20:13;11.70;99.90
59855;DHT22;45732;52.850;6.896;2023-03-23T05:22:41;11.60;99.90
59855;DHT22;45732;52.850;6.896;2023-03-23T05:25:07;11.60;99.90
59855;DHT22;45732;52.850;6.896;2023-03-23T05:27:37;11.00;99.90
59855;DHT22;45732;52.850;6.896;2023-03-23T05:30:04;10.70;99.90
59855;DHT22;45732;52.850;6.896;2023-03-23T05:32:31;10.60;99.90
59855;DHT22;45732;52.850;6.896;2023-03-23T05:34:57;10.50;99.90
59855;DHT22;45732;52.850;6.896;2023-03-23T05:37:25;10.50;99.90
59855;DHT22;45732;52.850;6.896;2023-03-23T05:39:53;10.50;99.90
59855;DHT22;45732;52.850;6.896;2023-03-23T05:42:21;10.40;99.90
59855;DHT22;45732;52.850;6.896;2023-03-23T05:44:48;10.40;99.90
59855;DHT22;45732;52.850;6.896;2023-03-23T05:47:14;10.40;99.90
59855;DHT22;45732;52.850;6.896;2023-03-23T05:49:39;10.40;99.90
59855;DHT22;45732;52.850;6.896;2023-03-23T05:52:05;10.40;99.90
59855;DHT22;45732;52.850;6.896;2023-03-23T05:54:31;10.50;99.90
59855;DHT22;45732;52.850;6.896;2023-03-23T05:56:57;10.50;99.90
59855;DHT22;45732;52.850;6.896;2023-03-23T05:59:23;10.50;99.90
59855;DHT22;45732;52.850;6.896;2023-03-23T06:01:50;10.50;99.90
59855;DHT22;45732;52.850;6.896;2023-03-23T06:04:16;10.50;99.90
59855;DHT22;45732;52.850;6.896;2023-03-23T06:06:42;10.60;99.90
59855;DHT22;45732;52.850;6.896;2023-03-23T06:09:09;10.60;99.90
59855;DHT22;45732;52.850;6.896;2023-03-23T06:11:35;10.60;99.90
59855;DHT22;45732;52.850;6.896;2023-03-23T06:14:01;10.60;99.90
59855;DHT22;45732;52.850;6.896;2023-03-23T06:16:27;10.60;99.90
59855;DHT22;45732;52.850;6.896;2023-03-23T06:18:52;10.70;99.90
59855;DHT22;45732;52.850;6.896;2023-03-23T06:21:18;10.70;99.90
59855;DHT22;45732;52.850;6.896;2023-03-23T06:23:45;10.70;99.90
59855;DHT22;45732;52.850;6.896;2023-03-23T06:26:12;10.80;99.90
59855;DHT22;45732;52.850;6.896;2023-03-23T06:28:42;10.80;99.90
59855;DHT22;45732;52.850;6.896;2023-03-23T06:31:08;10.70;99.90
59855;DHT22;45732;52.850;6.896;2023-03-23T06:33:35;10.80;99.90
59855;DHT22;45732;52.850;6.896;2023-03-23T06:36:01;10.80;99.90
59855;DHT22;45732;52.850;6.896;2023-03-23T06:38:27;10.80;99.90
59855;DHT22;45732;52.850;6.896;2023-03-23T06:40:53;10.80;99.90
59855;DHT22;45732;52.850;6.896;2023-03-23T06:43:19;10.70;99.90
59855;DHT22;45732;52.850;6.896;2023-03-23T06:45:45;10.70;99.90
59855;DHT22;45732;52.850;6.896;2023-03-23T06:48:11;10.70;99.90
59855;DHT22;45732;52.850;6.896;2023-03-23T06:50:37;10.80;99.90
59855;DHT22;45732;52.850;6.896;2023-03-23T06:53:03;10.80;99.90
59855;DHT22;45732;52.850;6.896;2023-03-23T06:55:29;10.80;99.90
59855;DHT22;45732;52.850;6.896;2023-03-23T06:57:54;10.80;99.90
59855;DHT22;45732;52.850;6.896;2023-03-23T07:00:20;10.80;99.90
59855;DHT22;45732;52.850;6.896;2023-03-23T07:02:46;10.80;99.90
59855;DHT22;45732;52.850;6.896;2023-03-23T07:05:12;10.80;99.90
59855;DHT22;45732;52.850;6.896;2023-03-23T07:07:39;10.90;99.90
59855;DHT22;45732;52.850;6.896;2023-03-23T07:10:07;10.90;99.90
59855;DHT22;45732;52.850;6.896;2023-03-23T07:12:35;10.90;99.90
59855;DHT22;45732;52.850;6.896;2023-03-23T07:15:02;10.90;99.90
59855;DHT22;45732;52.850;6.896;2023-03-23T07:17:28;10.90;99.90
59855;DHT22;45732;52.850;6.896;2023-03-23T07:19:54;10.90;99.90
59855;DHT22;45732;52.850;6.896;2023-03-23T07:22:20;11.00;99.90
59855;DHT22;45732;52.850;6.896;2023-03-23T07:24:45;11.00;99.90
59855;DHT22;45732;52.850;6.896;2023-03-23T07:27:11;11.00;99.90
59855;DHT22;45732;52.850;6.896;2023-03-23T07:29:37;11.00;99.90
59855;DHT22;45732;52.850;6.896;2023-03-23T07:32:05;11.00;99.90
59855;DHT22;45732;52.850;6.896;2023-03-23T07:34:31;11.00;99.90
59855;DHT22;45732;52.850;6.896;2023-03-23T07:36:58;11.00;99.90
59855;DHT22;45732;52.850;6.896;2023-03-23T07:39:24;11.10;99.90
59855;DHT22;45732;52.850;6.896;2023-03-23T07:41:51;11.10;99.90
59855;DHT22;45732;52.850;6.896;2023-03-23T07:44:16;11.10;99.90
59855;DHT22;45732;52.850;6.896;2023-03-23T07:46:42;11.10;99.90
59855;DHT22;45732;52.850;6.896;2023-03-23T07:49:09;11.20;99.90
59855;DHT22;45732;52.850;6.896;2023-03-23T07:51:36;11.20;99.90
59855;DHT22;45732;52.850;6.896;2023-03-23T07:54:04;11.20;99.90
59855;DHT22;45732;52.850;6.896;2023-03-23T07:56:30;11.30;99.90
59855;DHT22;45732;52.850;6.896;2023-03-23T07:58:56;11.40;99.90
59855;DHT22;45732;52.850;6.896;2023-03-23T08:01:22;11.40;99.90
59855;DHT22;45732;52.850;6.896;2023-03-23T08:03:50;11.50;99.90
59855;DHT22;45732;52.850;6.896;2023-03-23T08:06:17;11.50;99.90
59855;DHT22;45732;52.850;6.896;2023-03-23T08:08:42;11.50;99.90
59855;DHT22;45732;52.850;6.896;2023-03-23T08:11:08;11.50;99.90
59855;DHT22;45732;52.850;6.896;2023-03-23T08:13:34;11.60;99.90
59855;DHT22;45732;52.850;6.896;2023-03-23T08:16:01;11.60;99.90
59855;DHT22;45732;52.850;6.896;2023-03-23T08:18:30;11.60;99.90
59855;DHT22;45732;52.850;6.896;2023-03-23T08:20:57;11.60;99.90
59855;DHT22;45732;52.850;6.896;2023-03-23T08:23:23;11.70;99.90
59855;DHT22;45732;52.850;6.896;2023-03-23T08:25:49;11.70;99.90
59855;DHT22;45732;52.850;6.896;2023-03-23T08:28:15;11.70;99.90
59855;DHT22;45732;52.850;6.896;2023-03-23T08:30:41;11.70;99.90
59855;DHT22;45732;52.850;6.896;2023-03-23T08:33:07;11.80;99.90
59855;DHT22;45732;52.850;6.896;2023-03-23T08:35:34;11.80;99.90
59855;DHT22;45732;52.850;6.896;2023-03-23T08:38:00;11.80;99.90
59855;DHT22;45732;52.850;6.896;2023-03-23T08:40:26;11.80;99.90
59855;DHT22;45732;52.850;6.896;2023-03-23T08:42:53;11.80;99.90
59855;DHT22;45732;52.850;6.896;2023-03-23T08:45:24;11.90;99.90
59855;DHT22;45732;52.850;6.896;2023-03-23T08:47:50;11.80;99.90
59855;DHT22;45732;52.850;6.896;2023-03-23T08:50:24;11.90;99.90
59855;DHT22;45732;52.850;6.896;2023-03-23T08:52:50;11.80;99.90
59855;DHT22;45732;52.850;6.896;2023-03-23T08:55:17;11.80;99.90
59855;DHT22;45732;52.850;6.896;2023-03-23T08:57:45;11.80;99.90
59855;DHT22;45732;52.850;6.896;2023-03-23T09:00:16;11.80;99.90
59855;DHT22;45732;52.850;6.896;2023-03-23T09:02:52;11.70;99.90
59855;DHT22;45732;52.850;6.896;2023-03-23T09:05:20;11.80;99.90
59855;DHT22;45732;52.850;6.896;2023-03-23T09:07:49;11.80;99.90
59855;DHT22;45732;52.850;6.896;2023-03-23T09:10:15;11.90;99.90
59855;DHT22;45732;52.850;6.896;2023-03-23T09:12:42;12.00;99.90
59855;DHT22;45732;52.850;6.896;2023-03-23T09:15:10;12.00;99.90
59855;DHT22;45732;52.850;6.896;2023-03-23T09:17:39;12.00;99.90
59855;DHT22;45732;52.850;6.896;2023-03-23T09:20:06;12.00;99.90
59855;DHT22;45732;52.850;6.896;2023-03-23T09:22:36;12.00;99.90
59855;DHT22;45732;52.850;6.896;2023-03-23T09:25:04;12.00;99.90
59855;DHT22;45732;52.850;6.896;2023-03-23T09:27:30;12.00;99.90
59855;DHT22;45732;52.850;6.896;2023-03-23T09:29:56;12.10;99.90
59855;DHT22;45732;52.850;6.896;2023-03-23T09:32:22;12.10;99.90
59855;DHT22;45732;52.850;6.896;2023-03-23T09:34:48;12.00;99.90
59855;DHT22;45732;52.850;6.896;2023-03-23T09:37:13;12.00;99.90
59855;DHT22;45732;52.850;6.896;2023-03-23T09:39:39;12.00;99.90
59855;DHT22;45732;52.850;6.896;2023-03-23T09:42:23;12.00;99.90
59855;DHT22;45732;52.850;6.896;2023-03-23T09:50:30;12.30;99.90
59855;DHT22;45732;52.850;6.896;2023-03-23T09:53:19;12.50;99.90
59855;DHT22;45732;52.850;6.896;2023-03-23T09:55:46;12.60;99.90
59855;DHT22;45732;52.850;6.896;2023-03-23T09:58:27;12.70;99.90
59855;DHT22;45732;52.850;6.896;2023-03-23T10:01:14;12.80;99.90
59855;DHT22;45732;52.850;6.896;2023-03-23T10:03:44;12.90;99.90
59855;DHT22;45732;52.850;6.896;2023-03-23T10:06:13;13.00;99.90
59855;DHT22;45732;52.850;6.896;2023-03-23T10:08:46;12.90;99.90
59855;DHT22;45732;52.850;6.896;2023-03-23T10:16:09;13.10;99.90
59855;DHT22;45732;52.850;6.896;2023-03-23T10:19:11;13.30;99.90
59855;DHT22;45732;52.850;6.896;2023-03-23T10:21:42;13.40;99.90
59855;DHT22;45732;52.850;6.896;2023-03-23T10:24:10;13.60;99.90
59855;DHT22;45732;52.850;6.896;2023-03-23T10:26:57;13.70;99.90
59855;DHT22;45732;52.850;6.896;2023-03-23T10:29:39;13.80;99.90
59855;DHT22;45732;52.850;6.896;2023-03-23T10:32:12;13.80;99.90
59855;DHT22;45732;52.850;6.896;2023-03-23T10:34:54;13.90;99.90
59855;DHT22;45732;52.850;6.896;2023-03-23T10:37:38;13.90;99.90
59855;DHT22;45732;52.850;6.896;2023-03-23T10:40:14;13.90;99.90
59855;DHT22;45732;52.850;6.896;2023-03-23T10:42:41;14.00;99.90
59855;DHT22;45732;52.850;6.896;2023-03-23T10:45:30;14.10;99.90
59855;DHT22;45732;52.850;6.896;2023-03-23T10:50:56;14.20;99.90
59855;DHT22;45732;52.850;6.896;2023-03-23T10:53:36;14.10;99.90
59855;DHT22;45732;52.850;6.896;2023-03-23T10:56:04;13.90;99.90
59855;DHT22;45732;52.850;6.896;2023-03-23T10:58:32;14.00;99.90
59855;DHT22;45732;52.850;6.896;2023-03-23T11:01:00;13.90;99.90
59855;DHT22;45732;52.850;6.896;2023-03-23T11:06:18;13.70;99.90
59855;DHT22;45732;52.850;6.896;2023-03-23T11:08:57;13.70;99.90
59855;DHT22;45732;52.850;6.896;2023-03-23T11:11:29;13.70;99.90
59855;DHT22;45732;52.850;6.896;2023-03-23T11:14:13;13.90;99.90
59855;DHT22;45732;52.850;6.896;2023-03-23T11:16:44;14.10;99.90
59855;DHT22;45732;52.850;6.896;2023-03-23T11:19:16;14.10;99.90
59855;DHT22;45732;52.850;6.896;2023-03-23T11:21:50;14.30;99.90
59855;DHT22;45732;52.850;6.896;2023-03-23T11:24:18;14.40;99.90
59855;DHT22;45732;52.850;6.896;2023-03-23T11:26:44;14.50;99.90
59855;DHT22;45732;52.850;6.896;2023-03-23T11:29:15;14.60;99.90
59855;DHT22;45732;52.850;6.896;2023-03-23T11:31:48;14.60;99.90
59855;DHT22;45732;52.850;6.896;2023-03-23T11:34:16;14.60;99.90
59855;DHT22;45732;52.850;6.896;2023-03-23T11:36:57;14.60;99.90
59855;DHT22;45732;52.850;6.896;2023-03-23T11:39:27;14.30;99.90
59855;DHT22;45732;52.850;6.896;2023-03-23T11:41:54;14.20;99.90
59855;DHT22;45732;52.850;6.896;2023-03-23T11:44:31;14.20;99.90
59855;DHT22;45732;52.850;6.896;2023-03-23T11:50:10;14.10;99.90
59855;DHT22;45732;52.850;6.896;2023-03-23T11:53:00;14.10;99.90
59855;DHT22;45732;52.850;6.896;2023-03-23T11:58:18;14.10;99.90
59855;DHT22;45732;52.850;6.896;2023-03-23T12:00:48;14.10;99.90
59855;DHT22;45732;52.850;6.896;2023-03-23T12:03:36;14.10;99.90
59855;DHT22;45732;52.850;6.896;2023-03-23T12:06:07;14.10;99.90
59855;DHT22;45732;52.850;6.896;2023-03-23T12:14:30;14.20;99.90
59855;DHT22;45732;52.850;6.896;2023-03-23T12:17:09;14.30;99.90
59855;DHT22;45732;52.850;6.896;2023-03-23T12:19:44;14.20;99.90
59855;DHT22;45732;52.850;6.896;2023-03-23T12:27:42;14.10;99.90
59855;DHT22;45732;52.850;6.896;2023-03-23T12:40:57;14.20;99.90
59855;DHT22;45732;52.850;6.896;2023-03-23T12:49:17;14.20;99.90
59855;DHT22;45732;52.850;6.896;2023-03-23T12:52:03;14.20;99.90
59855;DHT22;45732;52.850;6.896;2023-03-23T12:57:26;14.50;99.90
59855;DHT22;45732;52.850;6.896;2023-03-23T13:02:44;14.80;99.90
59855;DHT22;45732;52.850;6.896;2023-03-23T13:08:17;14.70;99.90
59855;DHT22;45732;52.850;6.896;2023-03-23T13:10:51;14.60;99.90
59855;DHT22;45732;52.850;6.896;2023-03-23T13:13:25;14.50;99.90
59855;DHT22;45732;52.850;6.896;2023-03-23T13:16:11;14.40;99.90
59855;DHT22;45732;52.850;6.896;2023-03-23T13:18:56;14.40;99.90
59855;DHT22;45732;52.850;6.896;2023-03-23T13:21:30;14.40;99.90
59855;DHT22;45732;52.850;6.896;2023-03-23T13:24:06;14.50;99.90
59855;DHT22;45732;52.850;6.896;2023-03-23T13:26:38;14.60;99.90
59855;DHT22;45732;52.850;6.896;2023-03-23T13:29:06;14.80;99.90
59855;DHT22;45732;52.850;6.896;2023-03-23T13:31:41;15.00;99.90
59855;DHT22;45732;52.850;6.896;2023-03-23T13:34:19;15.10;99.90
59855;DHT22;45732;52.850;6.896;2023-03-23T13:40:13;15.20;99.90
59855;DHT22;45732;52.850;6.896;2023-03-23T14:10:56;15.10;99.90
59855;DHT22;45732;52.850;6.896;2023-03-23T14:16:12;15.00;99.90
59855;DHT22;45732;52.850;6.896;2023-03-23T14:18:40;14.80;99.90
59855;DHT22;45732;52.850;6.896;2023-03-23T14:21:14;14.70;99.90
59855;DHT22;45732;52.850;6.896;2023-03-23T14:23:41;14.60;99.90
59855;DHT22;45732;52.850;6.896;2023-03-23T14:26:17;14.50;99.90
59855;DHT22;45732;52.850;6.896;2023-03-23T14:28:51;14.40;99.90
59855;DHT22;45732;52.850;6.896;2023-03-23T14:31:19;14.30;99.90
59855;DHT22;45732;52.850;6.896;2023-03-23T14:33:47;14.20;99.90
59855;DHT22;45732;52.850;6.896;2023-03-23T14:36:18;13.90;99.90
59855;DHT22;45732;52.850;6.896;2023-03-23T14:38:45;13.50;99.90
59855;DHT22;45732;52.850;6.896;2023-03-23T14:41:11;13.10;99.90
59855;DHT22;45732;52.850;6.896;2023-03-23T14:43:37;12.90;99.90
59855;DHT22;45732;52.850;6.896;2023-03-23T14:46:07;13.00;99.90
59855;DHT22;45732;52.850;6.896;2023-03-23T14:48:34;13.00;99.90
59855;DHT22;45732;52.850;6.896;2023-03-23T14:51:03;12.90;99.90
59855;DHT22;45732;52.850;6.896;2023-03-23T14:53:36;12.90;99.90
59855;DHT22;45732;52.850;6.896;2023-03-23T14:56:14;12.90;99.90
59855;DHT22;45732;52.850;6.896;2023-03-23T14:58:47;12.90;99.90
59855;DHT22;45732;52.850;6.896;2023-03-23T15:01:27;13.00;99.90
59855;DHT22;45732;52.850;6.896;2023-03-23T15:06:48;13.40;99.90
59855;DHT22;45732;52.850;6.896;2023-03-23T15:09:20;13.60;99.90
59855;DHT22;45732;52.850;6.896;2023-03-23T15:11:59;13.80;99.90
59855;DHT22;45732;52.850;6.896;2023-03-23T15:14:31;13.90;99.90
59855;DHT22;45732;52.850;6.896;2023-03-23T15:16:59;14.00;99.90
59855;DHT22;45732;52.850;6.896;2023-03-23T15:19:37;14.10;99.90
59855;DHT22;45732;52.850;6.896;2023-03-23T15:22:25;14.20;99.90
59855;DHT22;45732;52.850;6.896;2023-03-23T15:24:53;14.30;99.90
59855;DHT22;45732;52.850;6.896;2023-03-23T15:27:32;14.40;99.90
59855;DHT22;45732;52.850;6.896;2023-03-23T15:30:00;14.60;99.90
59855;DHT22;45732;52.850;6.896;2023-03-23T15:32:40;14.50;99.90
59855;DHT22;45732;52.850;6.896;2023-03-23T15:35:16;14.50;99.90
59855;DHT22;45732;52.850;6.896;2023-03-23T15:37:45;14.50;99.90
59855;DHT22;45732;52.850;6.896;2023-03-23T15:40:19;14.60;99.90
59855;DHT22;45732;52.850;6.896;2023-03-23T15:42:46;14.90;99.90
59855;DHT22;45732;52.850;6.896;2023-03-23T15:47:47;15.30;99.90
59855;DHT22;45732;52.850;6.896;2023-03-23T15:52:51;15.60;99.90
59855;DHT22;45732;52.850;6.896;2023-03-23T15:55:21;15.60;99.90
59855;DHT22;45732;52.850;6.896;2023-03-23T15:57:48;15.50;99.90
59855;DHT22;45732;52.850;6.896;2023-03-23T16:00:18;15.40;99.90
59855;DHT22;45732;52.850;6.896;2023-03-23T16:02:54;15.70;99.90
59855;DHT22;45732;52.850;6.896;2023-03-23T16:05:20;16.20;99.90
59855;DHT22;45732;52.850;6.896;2023-03-23T16:07:46;16.60;99.90
59855;DHT22;45732;52.850;6.896;2023-03-23T16:10:18;16.80;99.90
59855;DHT22;45732;52.850;6.896;2023-03-23T16:12:44;17.00;99.90
59855;DHT22;45732;52.850;6.896;2023-03-23T16:15:11;16.90;99.90
59855;DHT22;45732;52.850;6.896;2023-03-23T16:17:37;17.10;99.90
59855;DHT22;45732;52.850;6.896;2023-03-23T16:20:11;16.90;99.90
59855;DHT22;45732;52.850;6.896;2023-03-23T16:22:37;17.00;99.90
59855;DHT22;45732;52.850;6.896;2023-03-23T16:25:03;16.90;99.90
59855;DHT22;45732;52.850;6.896;2023-03-23T16:27:29;16.50;99.90
59855;DHT22;45732;52.850;6.896;2023-03-23T16:29:55;16.10;99.90
59855;DHT22;45732;52.850;6.896;2023-03-23T16:32:23;15.90;99.90
59855;DHT22;45732;52.850;6.896;2023-03-23T16:34:48;15.20;99.90
59855;DHT22;45732;52.850;6.896;2023-03-23T16:37:14;14.90;99.90
59855;DHT22;45732;52.850;6.896;2023-03-23T16:39:41;14.80;99.90
59855;DHT22;45732;52.850;6.896;2023-03-23T16:42:07;14.60;99.90
59855;DHT22;45732;52.850;6.896;2023-03-23T16:44:32;14.50;99.90
59855;DHT22;45732;52.850;6.896;2023-03-23T16:46:58;14.50;99.90
59855;DHT22;45732;52.850;6.896;2023-03-23T16:49:24;14.60;99.90
59855;DHT22;45732;52.850;6.896;2023-03-23T16:51:49;14.50;99.90
59855;DHT22;45732;52.850;6.896;2023-03-23T16:54:15;14.60;99.90
59855;DHT22;45732;52.850;6.896;2023-03-23T16:56:41;14.50;99.90
59855;DHT22;45732;52.850;6.896;2023-03-23T16:59:14;14.40;99.90
59855;DHT22;45732;52.850;6.896;2023-03-23T17:01:39;14.20;99.90
59855;DHT22;45732;52.850;6.896;2023-03-23T17:04:07;13.80;99.90
59855;DHT22;45732;52.850;6.896;2023-03-23T17:06:33;13.60;99.90
59855;DHT22;45732;52.850;6.896;2023-03-23T17:08:59;13.50;99.90
59855;DHT22;45732;52.850;6.896;2023-03-23T17:11:24;13.30;99.90
59855;DHT22;45732;52.850;6.896;2023-03-23T17:13:50;13.30;99.90
59855;DHT22;45732;52.850;6.896;2023-03-23T17:16:16;13.20;99.90
59855;DHT22;45732;52.850;6.896;2023-03-23T17:18:42;13.10;99.90
59855;DHT22;45732;52.850;6.896;2023-03-23T17:21:07;13.10;99.90
59855;DHT22;45732;52.850;6.896;2023-03-23T17:23:33;13.00;99.90
59855;DHT22;45732;52.850;6.896;2023-03-23T17:25:59;13.00;99.90
59855;DHT22;45732;52.850;6.896;2023-03-23T17:28:25;13.00;99.90
59855;DHT22;45732;52.850;6.896;2023-03-23T17:30:51;13.00;99.90
59855;DHT22;45732;52.850;6.896;2023-03-23T17:33:17;13.00;99.90
59855;DHT22;45732;52.850;6.896;2023-03-23T17:35:45;13.00;99.90
59855;DHT22;45732;52.850;6.896;2023-03-23T17:38:11;12.90;99.90
59855;DHT22;45732;52.850;6.896;2023-03-23T17:40:36;12.90;99.90
59855;DHT22;45732;52.850;6.896;2023-03-23T17:43:02;12.80;99.90